createdAt,value
2022-08-05T00:00:07.379Z,39.82
2022-08-05T00:00:46.359Z,39.96
2022-08-05T00:01:20.717Z,40.34
2022-08-05T00:02:07.344Z,40.38
2022-08-05T00:02:39.704Z,39.84
2022-08-05T00:03:15.491Z,40.18
2022-08-05T00:03:47.259Z,40.04
2022-08-05T00:04:20.113Z,40.05
2022-08-05T00:04:55.579Z,40.11
2022-08-05T00:06:06.701Z,39.87
2022-08-05T00:06:29.161Z,39.56
2022-08-05T00:07:21.775Z,39.77
2022-08-05T00:07:59.905Z,39.80
2022-08-05T00:08:35.541Z,40.06
2022-08-05T00:09:12.722Z,39.99
2022-08-05T00:09:46.243Z,39.75
2022-08-05T00:10:17.675Z,39.67
2022-08-05T00:10:49.113Z,40.26
2022-08-05T00:11:28.024Z,40.22
2022-08-05T00:12:06.342Z,39.98
2022-08-05T00:12:56.086Z,39.85
2022-08-05T00:13:38.440Z,40.49
2022-08-05T00:14:12.814Z,40.38
2022-08-05T00:14:48.265Z,40.17
2022-08-05T00:15:55.132Z,40.20
2022-08-05T00:16:14.754Z,40.25
2022-08-05T00:16:52.908Z,40.19
2022-08-05T00:17:25.769Z,40.04
2022-08-05T00:17:57.316Z,39.96
2022-08-05T00:18:28.871Z,39.82
2022-08-05T00:19:00.363Z,39.96
2022-08-05T00:19:33.446Z,40.13
2022-08-05T00:20:15.572Z,40.17
2022-08-05T00:20:51.892Z,40.48
2022-08-05T00:21:24.265Z,39.84
2022-08-05T00:22:02.038Z,39.79
2022-08-05T00:22:33.477Z,40.19
2022-08-05T00:23:12.642Z,40.30
2022-08-05T00:23:46.580Z,40.20
2022-08-05T00:24:30.895Z,39.92
2022-08-05T00:25:02.883Z,40.27
2022-08-05T00:25:45.862Z,40.16
2022-08-05T00:26:17.755Z,40.14
2022-08-05T00:26:50.665Z,39.98
2022-08-05T00:27:35.889Z,40.28
2022-08-05T00:28:07.813Z,40.25
2022-08-05T00:28:44.154Z,39.96
2022-08-05T00:29:17.450Z,40.18
2022-08-05T00:29:49.681Z,40.28
2022-08-05T00:30:21.402Z,40.44
2022-08-05T00:31:04.416Z,40.06
2022-08-05T00:31:53.255Z,40.21
2022-08-05T00:32:26.217Z,40.56
2022-08-05T00:32:57.650Z,39.91
2022-08-05T00:34:53.548Z,40.14
2022-08-05T00:34:54.548Z,40.37
2022-08-05T00:35:11.985Z,40.09
2022-08-05T00:35:47.788Z,40.01
2022-08-05T00:37:11.209Z,39.72
2022-08-05T00:37:26.362Z,40.44
2022-08-05T00:38:04.272Z,40.42
2022-08-05T00:38:40.928Z,40.18
2022-08-05T00:39:13.464Z,40.42
2022-08-05T00:39:58.454Z,40.56
2022-08-05T00:40:30.533Z,40.25
2022-08-05T00:41:01.967Z,40.38
2022-08-05T00:41:55.172Z,40.06
2022-08-05T00:42:31.574Z,40.65
2022-08-05T00:43:07.470Z,40.04
2022-08-05T00:43:47.055Z,40.48
2022-08-05T00:44:21.460Z,40.62
2022-08-05T00:44:54.846Z,39.92
2022-08-05T00:45:38.092Z,40.20
2022-08-05T00:46:10.925Z,40.18
2022-08-05T00:46:43.832Z,40.51
2022-08-05T00:47:15.262Z,40.67
2022-08-05T00:47:53.129Z,40.54
2022-08-05T00:48:31.442Z,40.59
2022-08-05T00:49:03.196Z,40.56
2022-08-05T00:49:51.112Z,40.07
2022-08-05T00:50:25.473Z,40.11
2022-08-05T00:50:57.168Z,39.98
2022-08-05T00:51:50.382Z,40.09
2022-08-05T00:52:28.781Z,40.27
2022-08-05T00:53:00.395Z,40.19
2022-08-05T00:54:00.032Z,40.53
2022-08-05T00:54:24.297Z,39.98
2022-08-05T00:54:59.785Z,40.50
2022-08-05T00:55:42.184Z,40.30
2022-08-05T00:56:14.392Z,39.94
2022-08-05T00:56:51.834Z,40.55
2022-08-05T00:57:25.473Z,40.10
2022-08-05T00:58:11.104Z,40.27
2022-08-05T00:58:42.904Z,39.94
2022-08-05T00:59:16.482Z,40.30
2022-08-05T00:59:47.939Z,40.64
2022-08-05T01:00:20.055Z,40.24
2022-08-05T01:00:53.528Z,40.13
2022-08-05T01:01:42.630Z,40.28
2022-08-05T01:02:16.840Z,40.25
2022-08-05T01:02:48.272Z,40.59
2022-08-05T01:03:22.892Z,40.50
2022-08-05T01:03:54.836Z,40.33
2022-08-05T01:04:26.804Z,40.26
2022-08-05T01:05:01.160Z,40.40
2022-08-05T01:05:36.716Z,40.53
2022-08-05T01:06:11.173Z,39.91
2022-08-05T01:06:48.555Z,40.55
2022-08-05T01:07:20.454Z,40.34
2022-08-05T01:08:40.391Z,40.65
2022-08-05T01:08:44.462Z,40.48
2022-08-05T01:09:17.397Z,40.00
2022-08-05T01:09:55.549Z,40.16
2022-08-05T01:10:27.384Z,40.36
2022-08-05T01:11:00.920Z,40.35
2022-08-05T01:11:36.863Z,40.59
2022-08-05T01:12:18.128Z,40.14
2022-08-05T01:13:05.193Z,40.28
2022-08-05T01:13:57.432Z,40.60
2022-08-05T01:14:30.653Z,40.43
2022-08-05T01:15:03.992Z,40.67
2022-08-05T01:15:36.868Z,40.71
2022-08-05T01:16:08.420Z,40.50
2022-08-05T01:16:44.248Z,40.69
2022-08-05T01:17:15.866Z,40.38
2022-08-05T01:17:53.811Z,40.28
2022-08-05T01:18:25.706Z,40.76
2022-08-05T01:18:58.966Z,40.52
2022-08-05T01:19:56.230Z,40.21
2022-08-05T01:20:23.785Z,40.07
2022-08-05T01:20:58.585Z,40.23
2022-08-05T01:21:38.191Z,40.37
2022-08-05T01:22:10.931Z,40.72
2022-08-05T01:22:47.280Z,40.09
2022-08-05T01:23:23.405Z,40.33
2022-08-05T01:23:55.098Z,40.41
2022-08-05T01:24:30.226Z,40.56
2022-08-05T01:25:04.626Z,40.23
2022-08-05T01:25:39.777Z,40.61
2022-08-05T01:26:12.665Z,40.60
2022-08-05T01:26:44.215Z,40.44
2022-08-05T01:27:19.674Z,40.34
2022-08-05T01:27:55.628Z,40.30
2022-08-05T01:28:27.417Z,40.71
2022-08-05T01:29:00.649Z,40.71
2022-08-05T01:29:36.721Z,40.54
2022-08-05T01:30:12.468Z,40.14
2022-08-05T01:30:53.571Z,40.79
2022-08-05T01:31:26.665Z,40.52
2022-08-05T01:31:58.227Z,40.07
2022-08-05T01:32:29.664Z,40.62
2022-08-05T01:33:01.089Z,40.19
2022-08-05T01:33:35.522Z,40.77
2022-08-05T01:34:07.364Z,40.18
2022-08-05T01:34:39.924Z,40.43
2022-08-05T01:35:11.361Z,40.61
2022-08-05T01:36:02.764Z,40.56
2022-08-05T01:36:36.037Z,40.52
2022-08-05T01:37:17.992Z,40.25
2022-08-05T01:37:56.350Z,40.48
2022-08-05T01:38:31.643Z,40.54
2022-08-05T01:39:03.156Z,40.43
2022-08-05T01:39:46.442Z,40.06
2022-08-05T01:40:19.401Z,40.70
2022-08-05T01:40:59.433Z,40.43
2022-08-05T01:41:30.864Z,40.24
2022-08-05T01:42:03.932Z,40.34
2022-08-05T01:42:35.510Z,40.47
2022-08-05T01:43:06.931Z,40.60
2022-08-05T01:43:53.903Z,40.64
2022-08-05T01:44:25.335Z,40.76
2022-08-05T01:45:08.039Z,40.50
2022-08-05T01:45:43.033Z,40.74
2022-08-05T01:46:16.381Z,40.25
2022-08-05T01:47:06.824Z,40.71
2022-08-05T01:47:43.441Z,40.52
2022-08-05T01:48:14.923Z,40.44
2022-08-05T01:48:49.661Z,40.31
2022-08-05T01:49:23.034Z,40.32
2022-08-05T01:50:01.667Z,40.28
2022-08-05T01:50:34.540Z,40.97
2022-08-05T01:51:12.474Z,40.62
2022-08-05T01:51:44.412Z,40.92
2022-08-05T01:52:23.419Z,40.60
2022-08-05T01:52:55.337Z,40.48
2022-08-05T01:53:54.794Z,40.36
2022-08-05T01:54:18.171Z,40.26
2022-08-05T01:54:55.061Z,40.75
2022-08-05T01:55:26.492Z,40.08
2022-08-05T01:55:58.085Z,40.52
2022-08-05T01:58:12.156Z,40.77
2022-08-05T01:58:14.773Z,40.92
2022-08-05T01:58:15.858Z,40.19
2022-08-05T01:58:47.647Z,40.48
2022-08-05T01:59:19.247Z,41.02
2022-08-05T01:59:50.682Z,40.85
2022-08-05T02:00:30.489Z,40.32
2022-08-05T02:01:02.469Z,40.79
2022-08-05T02:01:39.976Z,40.65
2022-08-05T02:02:11.987Z,40.98
2022-08-05T02:02:54.357Z,40.87
2022-08-05T02:03:31.930Z,40.85
2022-08-05T02:04:05.463Z,40.69
2022-08-05T02:04:36.891Z,40.51
2022-08-05T02:05:12.353Z,40.33
2022-08-05T02:05:43.834Z,40.84
2022-08-05T02:06:37.168Z,40.86
2022-08-05T02:07:10.174Z,40.77
2022-08-05T02:08:00.286Z,40.22
2022-08-05T02:08:33.025Z,40.72
2022-08-05T02:09:04.461Z,40.33
2022-08-05T02:09:37.213Z,40.85
2022-08-05T02:10:08.997Z,40.36
2022-08-05T02:10:40.429Z,40.72
2022-08-05T02:11:12.793Z,40.78
2022-08-05T02:11:47.845Z,40.40
2022-08-05T02:12:23.549Z,40.61
2022-08-05T02:12:56.806Z,40.94
2022-08-05T02:13:36.496Z,40.87
2022-08-05T02:14:20.365Z,41.01
2022-08-05T02:14:51.792Z,40.88
2022-08-05T02:15:24.656Z,40.71
2022-08-05T02:16:02.572Z,40.86
2022-08-05T02:16:34.115Z,40.27
2022-08-05T02:17:05.539Z,40.75
2022-08-05T02:18:32.993Z,40.32
2022-08-05T02:18:34.828Z,40.96
2022-08-05T02:19:07.118Z,40.75
2022-08-05T02:19:40.605Z,40.68
2022-08-05T02:20:20.794Z,41.01
2022-08-05T02:20:53.583Z,40.55
2022-08-05T02:21:25.120Z,40.40
2022-08-05T02:21:57.038Z,40.89
2022-08-05T02:22:30.099Z,40.66
2022-08-05T02:23:01.645Z,40.55
2022-08-05T02:23:33.766Z,40.61
2022-08-05T02:24:07.108Z,40.68
2022-08-05T02:24:38.636Z,40.28
2022-08-05T02:25:12.629Z,40.96
2022-08-05T02:25:49.166Z,40.78
2022-08-05T02:26:21.934Z,40.28
2022-08-05T02:26:54.624Z,40.77
2022-08-05T02:27:30.011Z,40.66
2022-08-05T02:28:28.269Z,40.99
2022-08-05T02:29:00.857Z,40.31
2022-08-05T02:29:58.660Z,40.85
2022-08-05T02:30:27.076Z,40.23
2022-08-05T02:30:58.528Z,40.39
2022-08-05T02:31:34.680Z,40.75
2022-08-05T02:32:06.614Z,40.68
2022-08-05T02:32:39.080Z,40.64
2022-08-05T02:33:11.452Z,40.79
2022-08-05T02:33:42.899Z,40.36
2022-08-05T02:34:14.333Z,40.53
2022-08-05T02:34:45.762Z,40.66
2022-08-05T02:35:28.270Z,40.52
2022-08-05T02:36:04.842Z,40.95
2022-08-05T02:36:36.277Z,40.68
2022-08-05T02:37:07.713Z,40.59
2022-08-05T02:37:39.148Z,40.37
2022-08-05T02:38:10.581Z,40.28
2022-08-05T02:38:44.736Z,40.95
2022-08-05T02:39:25.183Z,40.34
2022-08-05T02:39:58.347Z,40.33
2022-08-05T02:40:29.833Z,40.49
2022-08-05T02:41:14.661Z,40.14
2022-08-05T02:41:57.797Z,40.94
2022-08-05T02:42:36.064Z,40.48
2022-08-05T02:43:07.768Z,40.78
2022-08-05T02:44:02.615Z,40.61
2022-08-05T02:44:32.587Z,40.29
2022-08-05T02:45:04.109Z,40.14
2022-08-05T02:45:51.866Z,40.42
2022-08-05T02:46:27.613Z,40.47
2022-08-05T02:47:00.849Z,40.89
2022-08-05T02:47:58.462Z,40.55
2022-08-05T02:48:29.235Z,40.48
2022-08-05T02:49:01.237Z,40.54
2022-08-05T02:49:36.006Z,40.43
2022-08-05T02:50:08.710Z,40.54
2022-08-05T02:50:44.089Z,40.43
2022-08-05T02:51:15.778Z,40.66
2022-08-05T02:52:02.985Z,40.65
2022-08-05T02:52:35.589Z,40.71
2022-08-05T02:53:07.028Z,40.49
2022-08-05T02:53:43.293Z,40.74
2022-08-05T02:54:35.844Z,40.63
2022-08-05T02:55:08.579Z,40.36
2022-08-05T02:55:54.570Z,40.83
2022-08-05T02:56:31.678Z,40.21
2022-08-05T02:57:03.123Z,40.59
2022-08-05T02:58:11.379Z,40.58
2022-08-05T02:58:28.964Z,40.47
2022-08-05T02:59:01.843Z,40.73
2022-08-05T02:59:47.757Z,40.65
2022-08-05T03:00:22.197Z,40.31
2022-08-05T03:00:56.937Z,40.53
2022-08-05T03:01:28.786Z,40.87
2022-08-05T03:02:00.350Z,40.59
2022-08-05T03:02:31.858Z,40.82
2022-08-05T03:03:03.298Z,40.42
2022-08-05T03:04:03.251Z,40.54
2022-08-05T03:04:33.266Z,40.99
2022-08-05T03:05:05.059Z,40.76
2022-08-05T03:06:54.728Z,40.77
2022-08-05T03:06:56.650Z,40.54
2022-08-05T03:07:30.874Z,40.87
2022-08-05T03:08:11.308Z,40.57
2022-08-05T03:08:43.036Z,40.64
2022-08-05T03:09:15.846Z,40.64
2022-08-05T03:09:51.640Z,40.72
2022-08-05T03:10:24.801Z,40.29
2022-08-05T03:11:01.302Z,40.29
2022-08-05T03:11:55.639Z,40.64
2022-08-05T03:12:29.568Z,40.59
2022-08-05T03:13:51.731Z,40.57
2022-08-05T03:14:22.677Z,40.38
2022-08-05T03:14:54.117Z,40.76
2022-08-05T03:15:28.345Z,40.64
2022-08-05T03:16:00.413Z,40.52
2022-08-05T03:16:31.888Z,40.55
2022-08-05T03:17:07.353Z,40.48
2022-08-05T03:17:41.989Z,40.72
2022-08-05T03:18:17.455Z,40.93
2022-08-05T03:18:48.992Z,40.51
2022-08-05T03:19:34.198Z,40.44
2022-08-05T03:20:07.656Z,40.93
2022-08-05T03:20:47.475Z,40.73
2022-08-05T03:21:20.440Z,40.44
2022-08-05T03:21:53.142Z,40.66
2022-08-05T03:22:32.232Z,40.73
2022-08-05T03:23:04.225Z,40.88
2022-08-05T03:23:35.664Z,40.79
2022-08-05T03:24:11.386Z,40.94
2022-08-05T03:24:47.062Z,40.92
2022-08-05T03:25:33.847Z,40.73
2022-08-05T03:26:31.020Z,40.60
2022-08-05T03:27:03.912Z,40.34
2022-08-05T03:27:39.304Z,40.62
2022-08-05T03:28:29.633Z,40.83
2022-08-05T03:29:01.067Z,40.69
2022-08-05T03:29:46.065Z,40.92
2022-08-05T03:30:30.275Z,40.91
2022-08-05T03:31:05.334Z,40.25
2022-08-05T03:31:55.337Z,40.50
2022-08-05T03:32:31.027Z,40.96
2022-08-05T03:33:02.819Z,40.76
2022-08-05T03:33:51.262Z,40.78
2022-08-05T03:34:24.670Z,40.71
2022-08-05T03:34:56.104Z,40.62
2022-08-05T03:35:27.539Z,40.72
2022-08-05T03:35:59.409Z,40.49
2022-08-05T03:36:31.000Z,40.78
2022-08-05T03:37:02.445Z,40.97
2022-08-05T03:37:46.234Z,40.68
2022-08-05T03:38:23.877Z,40.97
2022-08-05T03:39:04.918Z,40.83
2022-08-05T03:39:47.216Z,40.85
2022-08-05T03:40:31.813Z,40.63
2022-08-05T03:41:08.307Z,40.76
2022-08-05T03:41:45.345Z,40.62
2022-08-05T03:42:18.536Z,40.46
2022-08-05T03:42:52.526Z,40.54
2022-08-05T03:44:08.306Z,40.83
2022-08-05T03:44:19.891Z,40.39
2022-08-05T03:44:51.580Z,40.64
2022-08-05T03:45:23.677Z,40.82
2022-08-05T03:45:58.617Z,41.09
2022-08-05T03:46:32.595Z,40.46
2022-08-05T03:47:04.153Z,40.98
2022-08-05T03:47:41.363Z,41.03
2022-08-05T03:48:13.427Z,40.88
2022-08-05T03:48:53.383Z,40.83
2022-08-05T03:49:31.112Z,40.86
2022-08-05T03:50:16.708Z,40.54
2022-08-05T03:50:48.145Z,40.80
2022-08-05T03:52:38.874Z,40.75
2022-08-05T03:52:48.602Z,41.29
2022-08-05T03:54:59.070Z,40.84
2022-08-05T03:55:00.536Z,40.90
2022-08-05T03:56:01.222Z,41.01
2022-08-05T03:56:05.556Z,41.02
2022-08-05T03:56:33.128Z,41.05
2022-08-05T03:57:16.481Z,41.10
2022-08-05T03:57:49.498Z,41.23
2022-08-05T03:58:21.312Z,41.03
2022-08-05T03:59:00.408Z,41.23
2022-08-05T03:59:47.411Z,40.69
2022-08-05T04:00:23.314Z,40.86
2022-08-05T04:00:55.623Z,41.03
2022-08-05T04:01:27.187Z,40.98
2022-08-05T04:02:03.813Z,40.84
2022-08-05T04:02:38.311Z,41.25
2022-08-05T04:03:14.919Z,40.63
2022-08-05T04:04:09.098Z,41.31
2022-08-05T04:04:41.897Z,41.10
2022-08-05T04:05:16.358Z,41.07
2022-08-05T04:05:47.837Z,41.33
2022-08-05T04:06:19.261Z,40.98
2022-08-05T04:06:52.001Z,40.85
2022-08-05T04:07:24.939Z,40.82
2022-08-05T04:07:58.790Z,41.01
2022-08-05T04:08:36.490Z,40.98
2022-08-05T04:09:08.568Z,41.25
2022-08-05T04:09:39.998Z,40.73
2022-08-05T04:10:25.285Z,41.04
2022-08-05T04:10:59.431Z,41.17
2022-08-05T04:11:50.779Z,40.76
2022-08-05T04:12:24.370Z,41.45
2022-08-05T04:12:56.340Z,41.34
2022-08-05T04:13:49.782Z,40.94
2022-08-05T04:14:30.479Z,41.19
2022-08-05T04:15:02.408Z,41.48
2022-08-05T04:15:36.487Z,41.23
2022-08-05T04:16:08.017Z,41.17
2022-08-05T04:16:45.768Z,40.80
2022-08-05T04:17:17.203Z,41.04
2022-08-05T04:17:56.694Z,41.56
2022-08-05T04:18:28.928Z,41.13
2022-08-05T04:19:01.174Z,41.20
2022-08-05T04:19:32.701Z,41.26
2022-08-05T04:20:04.134Z,41.21
2022-08-05T04:20:36.290Z,41.14
2022-08-05T04:21:07.724Z,41.20
2022-08-05T04:22:08.319Z,41.31
2022-08-05T04:22:34.055Z,41.35
2022-08-05T04:23:06.220Z,41.33
2022-08-05T04:23:58.374Z,41.11
2022-08-05T04:24:35.285Z,41.62
2022-08-05T04:25:06.720Z,41.64
2022-08-05T04:26:00.560Z,40.81
2022-08-05T04:26:32.691Z,41.00
2022-08-05T04:27:04.156Z,41.12
2022-08-05T04:27:43.709Z,41.19
2022-08-05T04:28:30.702Z,41.25
2022-08-05T04:29:07.312Z,41.17
2022-08-05T04:29:39.039Z,41.49
2022-08-05T04:30:10.473Z,41.46
2022-08-05T04:30:42.861Z,40.95
2022-08-05T04:31:14.408Z,40.98
2022-08-05T04:31:48.425Z,41.46
2022-08-05T04:32:31.207Z,41.05
2022-08-05T04:33:04.929Z,40.96
2022-08-05T04:34:18.181Z,40.88
2022-08-05T04:34:33.943Z,41.09
2022-08-05T04:35:06.790Z,40.80
2022-08-05T04:36:16.050Z,41.10
2022-08-05T04:36:45.930Z,41.51
2022-08-05T04:37:22.872Z,41.10
2022-08-05T04:38:15.573Z,40.86
2022-08-05T04:38:50.961Z,40.92
2022-08-05T04:39:23.632Z,41.46
2022-08-05T04:39:55.700Z,41.18
2022-08-05T04:40:27.300Z,41.24
2022-08-05T04:40:58.810Z,41.42
2022-08-05T04:41:36.673Z,40.87
2022-08-05T04:42:09.371Z,41.04
2022-08-05T04:42:40.810Z,41.25
2022-08-05T04:43:16.507Z,41.23
2022-08-05T04:43:52.810Z,41.37
2022-08-05T04:44:29.892Z,41.33
2022-08-05T04:45:02.008Z,41.15
2022-08-05T04:45:48.754Z,40.88
2022-08-05T04:46:27.786Z,40.87
2022-08-05T04:47:00.076Z,40.83
2022-08-05T04:47:42.868Z,41.12
2022-08-05T04:48:28.016Z,41.17
2022-08-05T04:48:59.759Z,41.22
2022-08-05T04:49:39.134Z,41.51
2022-08-05T04:50:37.278Z,41.25
2022-08-05T04:51:14.259Z,41.25
2022-08-05T04:51:45.693Z,41.23
2022-08-05T04:52:17.123Z,41.14
2022-08-05T04:52:50.097Z,41.10
2022-08-05T04:53:21.537Z,41.00
2022-08-05T04:53:52.961Z,41.15
2022-08-05T04:54:24.840Z,41.18
2022-08-05T04:54:56.933Z,41.18
2022-08-05T04:56:11.915Z,41.04
2022-08-05T04:56:34.946Z,41.21
2022-08-05T04:57:08.756Z,41.40
2022-08-05T04:57:40.189Z,41.30
2022-08-05T04:58:21.638Z,41.58
2022-08-05T04:58:53.237Z,41.04
2022-08-05T04:59:38.537Z,41.36
2022-08-05T05:00:10.733Z,41.23
2022-08-05T05:00:42.169Z,41.39
2022-08-05T05:01:13.758Z,41.46
2022-08-05T05:02:06.787Z,41.39
2022-08-05T05:02:41.791Z,41.31
2022-08-05T05:03:14.719Z,41.15
2022-08-05T05:03:51.690Z,41.72
2022-08-05T05:04:24.683Z,41.48
2022-08-05T05:05:02.268Z,41.34
2022-08-05T05:05:34.376Z,41.60
2022-08-05T05:06:39.941Z,41.44
2022-08-05T05:07:17.156Z,41.75
2022-08-05T05:07:56.039Z,41.68
2022-08-05T05:08:30.424Z,41.42
2022-08-05T05:09:02.010Z,41.53
2022-08-05T05:09:37.480Z,41.52
2022-08-05T05:10:09.579Z,41.63
2022-08-05T05:10:41.016Z,41.29
2022-08-05T05:11:41.433Z,41.39
2022-08-05T05:12:19.007Z,41.61
2022-08-05T05:12:50.947Z,41.74
2022-08-05T05:13:22.730Z,41.97
2022-08-05T05:13:55.314Z,41.74
2022-08-05T05:14:27.895Z,41.39
2022-08-05T05:15:03.808Z,41.04
2022-08-05T05:15:59.318Z,41.81
2022-08-05T05:16:30.393Z,41.71
2022-08-05T05:17:02.038Z,41.83
2022-08-05T05:17:56.645Z,41.63
2022-08-05T05:18:31.506Z,41.79
2022-08-05T05:19:18.536Z,41.42
2022-08-05T05:19:51.006Z,41.46
2022-08-05T05:20:22.444Z,41.48
2022-08-05T05:20:59.617Z,41.21
2022-08-05T05:21:33.044Z,41.23
2022-08-05T05:22:23.965Z,41.70
2022-08-05T05:22:56.148Z,41.31
2022-08-05T05:24:02.286Z,42.03
2022-08-05T05:24:20.472Z,41.97
2022-08-05T05:24:58.829Z,42.10
2022-08-05T05:25:32.994Z,41.61
2022-08-05T05:26:12.257Z,41.80
2022-08-05T05:26:43.680Z,41.44
2022-08-05T05:27:18.063Z,41.40
2022-08-05T05:27:55.705Z,41.92
2022-08-05T05:28:27.532Z,41.58
2022-08-05T05:29:00.682Z,41.77
2022-08-05T05:30:03.496Z,41.61
2022-08-05T05:30:30.737Z,41.96
2022-08-05T05:31:05.778Z,41.66
2022-08-05T05:32:12.473Z,41.95
2022-08-05T05:32:47.124Z,41.54
2022-08-05T05:33:23.308Z,41.68
2022-08-05T05:33:59.497Z,41.57
2022-08-05T05:34:31.545Z,41.71
2022-08-05T05:35:03.158Z,41.18
2022-08-05T05:35:39.574Z,41.60
2022-08-05T05:36:14.646Z,41.65
2022-08-05T05:36:47.209Z,41.37
2022-08-05T05:37:22.641Z,41.51
2022-08-05T05:38:13.411Z,41.42
2022-08-05T05:38:45.508Z,41.48
2022-08-05T05:39:19.116Z,41.63
2022-08-05T05:39:50.900Z,41.64
2022-08-05T05:40:22.379Z,41.46
2022-08-05T05:40:57.604Z,41.14
2022-08-05T05:41:40.353Z,41.27
2022-08-05T05:42:13.400Z,41.08
2022-08-05T05:42:46.952Z,41.67
2022-08-05T05:43:22.406Z,41.06
2022-08-05T05:44:35.638Z,41.57
2022-08-05T05:45:01.493Z,41.25
2022-08-05T05:45:34.543Z,41.16
2022-08-05T05:46:08.495Z,41.40
2022-08-05T05:46:45.422Z,41.56
2022-08-05T05:47:30.237Z,41.79
2022-08-05T05:48:06.479Z,41.28
2022-08-05T05:48:38.997Z,41.72
2022-08-05T05:49:22.593Z,41.34
2022-08-05T05:49:56.692Z,41.60
2022-08-05T05:50:32.765Z,41.36
2022-08-05T05:51:15.097Z,41.20
2022-08-05T05:51:50.403Z,41.68
2022-08-05T05:52:28.627Z,41.14
2022-08-05T05:53:21.340Z,41.33
2022-08-05T05:53:58.644Z,41.16
2022-08-05T05:54:51.112Z,41.46
2022-08-05T05:55:22.504Z,41.16
2022-08-05T05:56:00.685Z,41.37
2022-08-05T05:56:35.052Z,41.12
2022-08-05T05:57:10.676Z,41.10
2022-08-05T05:57:52.734Z,41.38
2022-08-05T05:58:31.500Z,41.27
2022-08-05T05:59:05.134Z,41.88
2022-08-05T05:59:40.139Z,41.14
2022-08-05T06:00:11.921Z,41.67
2022-08-05T06:00:46.378Z,41.34
2022-08-05T06:01:17.988Z,41.48
2022-08-05T06:01:57.542Z,41.05
2022-08-05T06:02:32.845Z,41.30
2022-08-05T06:03:40.027Z,41.51
2022-08-05T06:04:03.675Z,41.17
2022-08-05T06:04:35.493Z,41.37
2022-08-05T06:05:15.737Z,41.36
2022-08-05T06:05:54.093Z,41.73
2022-08-05T06:06:28.110Z,41.33
2022-08-05T06:07:02.868Z,41.30
2022-08-05T06:07:41.639Z,41.04
2022-08-05T06:08:13.810Z,40.95
2022-08-05T06:09:03.936Z,41.43
2022-08-05T06:10:00.115Z,41.00
2022-08-05T06:10:29.389Z,41.31
2022-08-05T06:11:06.051Z,41.39
2022-08-05T06:11:39.310Z,41.22
2022-08-05T06:12:14.737Z,41.74
2022-08-05T06:12:47.131Z,41.40
2022-08-05T06:13:18.657Z,41.12
2022-08-05T06:13:53.735Z,41.27
2022-08-05T06:14:28.099Z,41.39
2022-08-05T06:15:00.504Z,41.24
2022-08-05T06:16:29.649Z,41.00
2022-08-05T06:16:31.708Z,41.17
2022-08-05T06:17:22.190Z,41.16
2022-08-05T06:17:55.159Z,41.42
2022-08-05T06:18:31.359Z,41.41
2022-08-05T06:19:07.079Z,41.54
2022-08-05T06:19:39.202Z,41.22
2022-08-05T06:20:18.851Z,41.46
2022-08-05T06:20:54.179Z,41.35
2022-08-05T06:21:36.168Z,41.86
2022-08-05T06:22:09.378Z,41.69
2022-08-05T06:22:40.851Z,41.65
2022-08-05T06:23:13.919Z,41.23
2022-08-05T06:23:46.309Z,41.39
2022-08-05T06:24:25.846Z,41.83
2022-08-05T06:24:58.853Z,41.68
2022-08-05T06:26:13.462Z,41.76
2022-08-05T06:26:24.107Z,41.20
2022-08-05T06:26:56.751Z,41.74
2022-08-05T06:28:08.937Z,41.62
2022-08-05T06:28:21.121Z,41.62
2022-08-05T06:28:56.750Z,41.88
2022-08-05T06:29:46.358Z,41.40
2022-08-05T06:30:21.111Z,41.49
2022-08-05T06:30:53.095Z,41.64
2022-08-05T06:31:30.516Z,41.89
2022-08-05T06:32:03.864Z,41.96
2022-08-05T06:32:35.292Z,41.96
2022-08-05T06:33:09.961Z,41.54
2022-08-05T06:34:08.014Z,42.05
2022-08-05T06:34:33.846Z,41.67
2022-08-05T06:35:05.943Z,41.97
2022-08-05T06:36:07.749Z,41.89
2022-08-05T06:36:29.879Z,41.63
2022-08-05T06:37:55.797Z,41.49
2022-08-05T06:38:14.156Z,41.76
2022-08-05T06:38:48.105Z,41.80
2022-08-05T06:39:20.309Z,41.42
2022-08-05T06:39:53.647Z,41.77
2022-08-05T06:40:28.036Z,41.65
2022-08-05T06:41:04.046Z,41.92
2022-08-05T06:41:35.824Z,41.59
2022-08-05T06:42:13.841Z,41.86
2022-08-05T06:42:45.514Z,42.13
2022-08-05T06:43:51.446Z,41.99
2022-08-05T06:44:09.399Z,41.49
2022-08-05T06:44:40.926Z,41.49
2022-08-05T06:45:21.285Z,41.62
2022-08-05T06:46:07.424Z,41.61
2022-08-05T06:46:39.030Z,41.65
2022-08-05T06:48:11.634Z,42.05
2022-08-05T06:48:37.015Z,42.50
2022-08-05T06:48:59.163Z,42.08
2022-08-05T06:50:00.269Z,42.00
2022-08-05T06:50:22.495Z,42.58
2022-08-05T06:50:55.275Z,42.35
2022-08-05T06:51:30.084Z,42.33
2022-08-05T06:52:02.272Z,42.13
2022-08-05T06:52:37.259Z,42.36
2022-08-05T06:53:19.582Z,42.04
2022-08-05T06:53:59.111Z,42.19
2022-08-05T06:54:30.540Z,42.62
2022-08-05T06:55:02.443Z,42.34
2022-08-05T06:55:36.402Z,42.38
2022-08-05T06:56:25.879Z,42.01
2022-08-05T06:57:56.824Z,42.46
2022-08-05T06:57:57.652Z,42.31
2022-08-05T06:58:36.710Z,41.74
2022-08-05T06:59:09.430Z,42.22
2022-08-05T06:59:48.541Z,42.12
2022-08-05T07:00:29.705Z,41.98
2022-08-05T07:01:01.279Z,41.54
2022-08-05T07:01:33.018Z,41.90
2022-08-05T07:02:04.547Z,41.55
2022-08-05T07:02:35.987Z,41.64
2022-08-05T07:03:07.527Z,42.35
2022-08-05T07:03:41.284Z,41.75
2022-08-05T07:04:13.994Z,41.77
2022-08-05T07:04:45.657Z,41.59
2022-08-05T07:05:19.145Z,41.67
2022-08-05T07:05:51.476Z,41.71
2022-08-05T07:06:22.899Z,41.24
2022-08-05T07:06:54.356Z,41.77
2022-08-05T07:07:35.441Z,41.81
2022-08-05T07:08:15.385Z,41.86
2022-08-05T07:08:47.486Z,41.33
2022-08-05T07:09:24.851Z,41.75
2022-08-05T07:09:58.510Z,41.82
2022-08-05T07:10:32.530Z,41.40
2022-08-05T07:11:04.306Z,41.71
2022-08-05T07:11:37.192Z,41.14
2022-08-05T07:12:09.007Z,41.18
2022-08-05T07:12:41.839Z,41.42
2022-08-05T07:13:39.536Z,41.13
2022-08-05T07:14:20.780Z,41.51
2022-08-05T07:15:01.595Z,41.08
2022-08-05T07:15:34.606Z,41.20
2022-08-05T07:17:56.555Z,41.89
2022-08-05T07:18:01.764Z,41.34
2022-08-05T07:18:10.291Z,42.45
2022-08-05T07:18:47.946Z,42.40
2022-08-05T07:19:44.309Z,41.93
2022-08-05T07:20:32.470Z,41.88
2022-08-05T07:21:04.833Z,42.08
2022-08-05T07:22:00.262Z,41.98
2022-08-05T07:22:30.198Z,42.20
2022-08-05T07:23:01.850Z,42.01
2022-08-05T07:23:35.977Z,42.67
2022-08-05T07:24:12.024Z,42.49
2022-08-05T07:24:44.005Z,41.82
2022-08-05T07:25:55.260Z,41.84
2022-08-05T07:26:22.455Z,41.87
2022-08-05T07:26:54.266Z,42.53
2022-08-05T07:27:27.439Z,42.15
2022-08-05T07:28:17.578Z,41.42
2022-08-05T07:28:49.041Z,41.83
2022-08-05T07:29:20.508Z,41.98
2022-08-05T07:30:23.909Z,41.92
2022-08-05T07:30:57.166Z,42.32
2022-08-05T07:31:54.056Z,42.20
2022-08-05T07:32:26.073Z,42.56
2022-08-05T07:32:57.879Z,42.18
2022-08-05T07:33:35.063Z,41.88
2022-08-05T07:34:08.837Z,42.21
2022-08-05T07:34:45.345Z,41.64
2022-08-05T07:36:03.189Z,42.03
2022-08-05T07:36:20.027Z,41.92
2022-08-05T07:36:53.120Z,41.76
2022-08-05T07:37:35.998Z,41.54
2022-08-05T07:38:12.467Z,42.16
2022-08-05T07:39:00.627Z,42.44
2022-08-05T07:40:04.030Z,42.16
2022-08-05T07:40:32.856Z,41.55
2022-08-05T07:42:08.710Z,41.59
2022-08-05T07:42:12.835Z,41.48
2022-08-05T07:42:46.805Z,42.17
2022-08-05T07:43:20.311Z,41.78
2022-08-05T07:43:52.547Z,42.26
2022-08-05T07:44:23.996Z,42.10
2022-08-05T07:44:57.258Z,41.89
2022-08-05T07:45:56.993Z,41.57
2022-08-05T07:46:25.047Z,41.99
2022-08-05T07:46:57.377Z,41.67
2022-08-05T07:47:41.989Z,42.01
2022-08-05T07:48:14.077Z,42.21
2022-08-05T07:49:07.995Z,42.06
2022-08-05T07:49:43.376Z,41.97
2022-08-05T07:50:26.736Z,41.71
2022-08-05T07:51:04.020Z,42.16
2022-08-05T07:51:55.176Z,41.67
2022-08-05T07:52:26.814Z,41.49
2022-08-05T07:52:58.262Z,41.85
2022-08-05T07:53:36.896Z,41.71
2022-08-05T07:54:21.253Z,41.69
2022-08-05T07:54:54.991Z,42.06
2022-08-05T07:55:44.220Z,41.39
2022-08-05T07:57:00.323Z,41.49
2022-08-05T07:57:14.012Z,41.22
2022-08-05T07:58:03.255Z,41.45
2022-08-05T07:58:57.424Z,41.97
2022-08-05T07:59:38.705Z,41.69
2022-08-05T08:00:12.104Z,41.90
2022-08-05T08:00:43.608Z,41.85
2022-08-05T08:01:16.882Z,41.82
2022-08-05T08:01:57.738Z,41.65
2022-08-05T08:02:31.307Z,41.88
2022-08-05T08:03:21.632Z,42.07
2022-08-05T08:03:53.145Z,42.05